createdAt,value
2022-10-05T00:10:50.055Z,13.37
2022-10-05T00:39:42.228Z,12.94
2022-10-05T01:08:40.894Z,12.71
2022-10-05T01:37:37.586Z,12.24
2022-10-05T02:06:33.414Z,11.66
2022-10-05T02:35:29.803Z,11.24
2022-10-05T03:04:24.725Z,10.79
2022-10-05T03:33:22.118Z,10.83
2022-10-05T04:02:12.352Z,10.56
2022-10-05T04:31:04.516Z,10.55
2022-10-05T04:59:46.198Z,10.13
2022-10-05T05:28:48.245Z,10.33
2022-10-05T05:57:31.273Z,10.18
2022-10-05T06:26:30.018Z,10.81
2022-10-05T06:55:38.456Z,13.47
2022-10-05T07:25:05.860Z,15.77
2022-10-05T07:54:07.107Z,16.13
2022-10-05T08:23:18.590Z,17.11
2022-10-05T08:53:05.875Z,21.08
2022-10-05T09:22:07.575Z,22.04
2022-10-05T09:51:09.767Z,22.94
2022-10-05T10:20:04.139Z,23.26
2022-10-05T10:48:50.115Z,25.82
2022-10-05T11:16:52.438Z,25.15
2022-10-05T11:45:24.675Z,26.23
2022-10-05T12:14:12.372Z,24.44
2022-10-05T12:43:04.202Z,24.5
2022-10-05T13:11:53.130Z,24.47
2022-10-05T13:40:45.126Z,24.63
2022-10-05T14:09:48.511Z,24.7
2022-10-05T14:38:48.967Z,24.95
2022-10-05T15:07:51.297Z,24.72
2022-10-05T15:36:54.949Z,24.25
2022-10-05T16:05:48.301Z,23.64
2022-10-05T16:34:45.896Z,22.78
2022-10-05T17:03:33.812Z,21.81
2022-10-05T17:32:17.194Z,21.21
2022-10-05T18:01:16.823Z,20.72
2022-10-05T18:29:31.743Z,20.33
2022-10-05T18:57:51.221Z,19.86
2022-10-05T19:26:05.655Z,19.3
2022-10-05T19:54:26.275Z,19.03
2022-10-05T20:22:46.599Z,18.94
2022-10-05T20:51:30.216Z,17.59
2022-10-05T21:19:42.813Z,16.63
2022-10-05T21:47:57.444Z,16.23
2022-10-05T22:16:10.460Z,15.68
2022-10-05T22:45:08.677Z,16.18
2022-10-05T23:14:13.196Z,16.62
2022-10-05T23:43:15.479Z,16.06
